Time;durP1;ratioP1;P1;durP2;ratioP2;P2;SDS_P1;SDS_P2;PMS_P1;PMS_P2;Temp;Humidity;BMP_temperature;BMP_pressure;BME280_temperature;BME280_humidity;BME280_pressure;Samples;Min_cycle;Max_cycle;Signal;HPM_P1;HPM_P2
2023/04/29 00:01:35;;;;;;;3.30;3.10;;;;;;;;;;5036786;28;20477;-76
2023/04/29 00:04:15;;;;;;;2.87;2.77;;;;;;;;;;5036798;28;20458;-77
2023/04/29 00:06:53;;;;;;;3.17;2.97;;;;;;;;;;5036637;28;20456;-76
2023/04/29 00:09:27;;;;;;;3.10;2.90;;;;;;;;;;5035293;28;20478;-75
2023/04/29 00:11:56;;;;;;;2.97;2.73;;;;;;;;;;5035619;28;20438;-75
2023/04/29 00:14:27;;;;;;;3.17;2.97;;;;;;;;;;5034934;28;20450;-76
2023/04/29 00:16:56;;;;;;;3.83;3.53;;;;;;;;;;5034052;28;20967;-74
2023/04/29 00:19:24;;;;;;;3.23;3.03;;;;;;;;;;5033725;28;20450;-75
2023/04/29 00:21:55;;;;;;;3.10;2.90;;;;;;;;;;5035213;28;20443;-76
2023/04/29 00:24:33;;;;;;;2.90;2.70;;;;;;;;;;5037194;28;20530;-75
2023/04/29 00:27:05;;;;;;;3.40;3.10;;;;;;;;;;5038568;28;20469;-75
2023/04/29 00:29:35;;;;;;;3.00;2.80;;;;;;;;;;5032694;28;20482;-77
2023/04/29 00:32:03;;;;;;;3.03;2.93;;;;;;;;;;5036342;28;20439;-75
2023/04/29 00:34:30;;;;;;;3.03;2.90;;;;;;;;;;5036397;28;20451;-76
2023/04/29 00:36:58;;;;;;;2.97;2.87;;;;;;;;;;5037922;28;20454;-76
2023/04/29 00:39:25;;;;;;;3.57;3.00;;;;;;;;;;5038765;28;20442;-76
2023/04/29 00:41:54;;;;;;;3.70;3.40;;;;;;;;;;5038008;28;20534;-76
2023/04/29 00:44:27;;;;;;;4.93;2.70;;;;;;;;;;5038829;28;20438;-76
2023/04/29 00:46:58;;;;;;;3.50;2.90;;;;;;;;;;5038290;28;20478;-76
2023/04/29 00:49:25;;;;;;;3.03;2.93;;;;;;;;;;5037144;28;20474;-76
2023/04/29 00:51:55;;;;;;;3.80;3.50;;;;;;;;;;5038983;28;20431;-76
2023/04/29 00:54:28;;;;;;;3.40;3.10;;;;;;;;;;5040455;28;20522;-75
2023/04/29 00:57:01;;;;;;;3.87;3.50;;;;;;;;;;5040020;28;20454;-77
2023/04/29 00:59:31;;;;;;;4.60;4.30;;;;;;;;;;5044334;28;20454;-75
2023/04/29 01:02:16;;;;;;;4.60;4.30;;;;;;;;;;5043726;28;20441;-76
2023/04/29 01:04:55;;;;;;;5.13;4.63;;;;;;;;;;5042027;28;20450;-76
2023/04/29 01:07:37;;;;;;;4.77;4.43;;;;;;;;;;5043976;28;20500;-76
2023/04/29 01:10:07;;;;;;;4.17;3.83;;;;;;;;;;5043515;28;20482;-76
2023/04/29 01:12:45;;;;;;;5.90;4.77;;;;;;;;;;5046345;28;20446;-74
2023/04/29 01:15:22;;;;;;;4.60;4.20;;;;;;;;;;5045874;28;20450;-76
2023/04/29 01:17:58;;;;;;;4.40;4.10;;;;;;;;;;5044880;28;20505;-76
2023/04/29 01:20:28;;;;;;;4.87;4.43;;;;;;;;;;5043809;28;20462;-75
2023/04/29 01:22:58;;;;;;;4.47;4.17;;;;;;;;;;5043764;28;20485;-77
2023/04/29 01:25:30;;;;;;;4.47;4.07;;;;;;;;;;5044304;28;20442;-75
2023/04/29 01:28:12;;;;;;;4.30;4.00;;;;;;;;;;5043713;28;20462;-75
2023/04/29 01:30:54;;;;;;;4.17;3.97;;;;;;;;;;5039891;28;20453;-77
2023/04/29 01:33:29;;;;;;;4.33;4.13;;;;;;;;;;5039517;28;20450;-75
2023/04/29 01:36:07;;;;;;;5.03;4.43;;;;;;;;;;5040026;28;20454;-75
2023/04/29 01:38:46;;;;;;;4.43;4.13;;;;;;;;;;5038896;28;21033;-75
2023/04/29 01:41:25;;;;;;;4.40;4.00;;;;;;;;;;5038471;28;20500;-75
2023/04/29 01:43:57;;;;;;;4.90;4.03;;;;;;;;;;5038834;28;20461;-75
2023/04/29 01:46:27;;;;;;;7.03;3.73;;;;;;;;;;5037793;28;21448;-75
2023/04/29 01:48:58;;;;;;;5.97;3.90;;;;;;;;;;5036174;28;20482;-75
2023/04/29 01:51:33;;;;;;;4.30;3.90;;;;;;;;;;5036332;28;20450;-76
2023/04/29 01:54:04;;;;;;;4.60;4.20;;;;;;;;;;5035376;28;20902;-75
2023/04/29 01:56:33;;;;;;;4.77;4.30;;;;;;;;;;5036023;28;20792;-75
2023/04/29 01:59:06;;;;;;;4.47;4.17;;;;;;;;;;5035872;28;20516;-76
2023/04/29 02:01:37;;;;;;;4.37;4.00;;;;;;;;;;5034416;28;20435;-76
2023/04/29 02:04:17;;;;;;;4.07;3.77;;;;;;;;;;5036716;28;20479;-76
2023/04/29 02:06:45;;;;;;;4.30;3.90;;;;;;;;;;5039179;28;20930;-75
2023/04/29 02:09:13;;;;;;;4.40;4.10;;;;;;;;;;5038266;28;20470;-76
2023/04/29 02:11:43;;;;;;;8.63;5.40;;;;;;;;;;5038589;28;20888;-75
2023/04/29 02:14:13;;;;;;;4.17;3.87;;;;;;;;;;5038453;28;20454;-76
2023/04/29 02:16:45;;;;;;;4.47;4.17;;;;;;;;;;5037729;28;20469;-74
2023/04/29 02:19:19;;;;;;;4.40;4.10;;;;;;;;;;5034690;28;20467;-76
2023/04/29 02:21:47;;;;;;;4.93;4.63;;;;;;;;;;5036389;28;20458;-76
2023/04/29 02:24:15;;;;;;;4.77;4.47;;;;;;;;;;5038205;28;20946;-75
2023/04/29 02:26:44;;;;;;;5.77;5.10;;;;;;;;;;5038959;28;20458;-76
2023/04/29 02:29:17;;;;;;;5.27;4.87;;;;;;;;;;5038933;28;21083;-75
2023/04/29 02:31:51;;;;;;;4.30;4.00;;;;;;;;;;5036830;28;20442;-76
2023/04/29 02:34:22;;;;;;;7.90;4.57;;;;;;;;;;5032801;28;20457;-75
2023/04/29 02:36:51;;;;;;;7.13;4.33;;;;;;;;;;5033969;28;20445;-76
2023/04/29 02:39:19;;;;;;;4.77;4.37;;;;;;;;;;5032900;28;20451;-76
2023/04/29 02:41:51;;;;;;;5.07;4.57;;;;;;;;;;5033752;28;20457;-74
2023/04/29 02:44:25;;;;;;;4.10;3.80;;;;;;;;;;5034545;28;20446;-75
2023/04/29 02:46:58;;;;;;;4.30;4.00;;;;;;;;;;5035612;28;20442;-75
2023/04/29 02:49:32;;;;;;;5.17;4.60;;;;;;;;;;5035486;28;20494;-75
2023/04/29 02:52:09;;;;;;;4.43;4.10;;;;;;;;;;5035659;28;20828;-75
2023/04/29 02:54:45;;;;;;;4.93;4.30;;;;;;;;;;5040407;28;20838;-75
2023/04/29 02:57:28;;;;;;;5.27;4.70;;;;;;;;;;5038429;28;20461;-74
2023/04/29 03:00:12;;;;;;;4.90;4.40;;;;;;;;;;5038363;28;20461;-74
2023/04/29 03:02:50;;;;;;;3.73;3.53;;;;;;;;;;5038913;28;20484;-75
2023/04/29 03:05:19;;;;;;;4.67;3.97;;;;;;;;;;5039590;28;20454;-76
2023/04/29 03:07:55;;;;;;;4.30;4.07;;;;;;;;;;5038397;28;20481;-75
2023/04/29 03:10:43;;;;;;;4.40;4.00;;;;;;;;;;5037159;28;20548;-76
2023/04/29 03:13:33;;;;;;;4.13;3.73;;;;;;;;;;5037360;28;20442;-76
2023/04/29 03:16:03;;;;;;;4.40;4.00;;;;;;;;;;5038972;28;20457;-75
2023/04/29 03:18:47;;;;;;;7.73;3.90;;;;;;;;;;5041369;28;20474;-76
2023/04/29 03:21:24;;;;;;;3.93;3.63;;;;;;;;;;5038552;28;20515;-76
2023/04/29 03:23:55;;;;;;;4.20;3.90;;;;;;;;;;5038150;28;20454;-77
2023/04/29 03:26:35;;;;;;;4.87;4.50;;;;;;;;;;5038822;28;20442;-76
2023/04/29 03:29:10;;;;;;;15.90;14.40;;;;;;;;;;5039093;28;20482;-75
2023/04/29 03:31:48;;;;;;;5.87;5.37;;;;;;;;;;5039274;28;20450;-75
2023/04/29 03:34:17;;;;;;;8.10;7.40;;;;;;;;;;5040036;28;20465;-75
2023/04/29 03:36:48;;;;;;;16.20;14.53;;;;;;;;;;5039469;28;20489;-75
2023/04/29 03:39:32;;;;;;;7.57;6.87;;;;;;;;;;5039082;28;20497;-75
2023/04/29 03:42:03;;;;;;;5.47;5.07;;;;;;;;;;5039625;28;20473;-75
2023/04/29 03:47:29;;;;;;;;;;;;;;;;;;;;;
2023/04/29 03:50:03;;;;;;;4.87;4.47;;;;;;;;;;5040513;28;20467;-76
2023/04/29 03:52:41;;;;;;;5.93;5.33;;;;;;;;;;5040130;28;20454;-75
2023/04/29 03:55:13;;;;;;;5.33;4.97;;;;;;;;;;5039314;28;20501;-77
2023/04/29 03:57:54;;;;;;;4.80;4.50;;;;;;;;;;5040076;28;20471;-74
2023/04/29 04:00:37;;;;;;;5.83;5.30;;;;;;;;;;5039264;28;20496;-75
2023/04/29 04:03:12;;;;;;;5.23;4.67;;;;;;;;;;5038575;28;20923;-75
2023/04/29 04:05:54;;;;;;;5.30;4.90;;;;;;;;;;5036870;28;20454;-76
2023/04/29 04:08:43;;;;;;;4.80;4.50;;;;;;;;;;5039609;28;20517;-76
2023/04/29 04:11:17;;;;;;;5.00;4.60;;;;;;;;;;5040962;28;20528;-75
2023/04/29 04:13:50;;;;;;;5.03;4.73;;;;;;;;;;5041160;28;20525;-74
2023/04/29 04:16:41;;;;;;;4.60;4.30;;;;;;;;;;5039733;28;20512;-75
2023/04/29 04:19:21;;;;;;;5.30;4.80;;;;;;;;;;5039096;28;20458;-74
2023/04/29 04:21:52;;;;;;;4.87;4.57;;;;;;;;;;5043295;28;20841;-74
2023/04/29 04:24:20;;;;;;;5.00;4.70;;;;;;;;;;5042986;28;20966;-76
2023/04/29 04:26:55;;;;;;;4.90;4.60;;;;;;;;;;5042920;28;20450;-75
2023/04/29 04:29:25;;;;;;;5.97;4.97;;;;;;;;;;5041265;28;20480;-74
2023/04/29 04:31:56;;;;;;;5.20;4.80;;;;;;;;;;5042530;28;20454;-76
2023/04/29 04:34:29;;;;;;;5.60;5.10;;;;;;;;;;5041691;28;20454;-75
2023/04/29 04:37:08;;;;;;;6.57;5.97;;;;;;;;;;5039785;28;20473;-75
2023/04/29 04:39:39;;;;;;;5.90;5.40;;;;;;;;;;5041936;28;20588;-75
2023/04/29 04:45:24;;;;;;;5.97;5.57;;;;;;;;;;5038995;28;20844;-76
2023/04/29 04:47:53;;;;;;;5.33;5.03;;;;;;;;;;5042163;28;20483;-75
2023/04/29 04:50:23;;;;;;;6.03;5.50;;;;;;;;;;5039471;28;20516;-75
2023/04/29 04:52:55;;;;;;;6.20;5.73;;;;;;;;;;5039091;28;20448;-75
2023/04/29 04:55:26;;;;;;;5.47;5.07;;;;;;;;;;5042073;28;20486;-75
2023/04/29 04:57:54;;;;;;;5.80;5.30;;;;;;;;;;5039149;28;20454;-76
2023/04/29 05:00:27;;;;;;;6.60;6.00;;;;;;;;;;5037830;28;20980;-76
2023/04/29 05:02:59;;;;;;;6.33;5.93;;;;;;;;;;5034658;28;21315;-76
2023/04/29 05:05:29;;;;;;;7.40;6.90;;;;;;;;;;5039568;28;20446;-74
2023/04/29 05:07:57;;;;;;;7.10;6.60;;;;;;;;;;5038169;28;20510;-76
2023/04/29 05:10:25;;;;;;;6.67;6.07;;;;;;;;;;5039437;28;20489;-74
2023/04/29 05:12:53;;;;;;;6.40;5.90;;;;;;;;;;5038861;28;20962;-75
2023/04/29 05:15:26;;;;;;;7.17;6.67;;;;;;;;;;5038444;28;20445;-76
2023/04/29 05:17:54;;;;;;;6.47;5.80;;;;;;;;;;5039089;28;20852;-74
2023/04/29 05:20:22;;;;;;;5.57;5.27;;;;;;;;;;5038429;28;20454;-75
2023/04/29 05:23:09;;;;;;;6.90;6.30;;;;;;;;;;5038326;28;20508;-74
2023/04/29 05:25:39;;;;;;;6.10;5.60;;;;;;;;;;5039362;28;20954;-75
2023/04/29 05:28:08;;;;;;;5.93;5.53;;;;;;;;;;5039139;28;20561;-75
2023/04/29 05:30:38;;;;;;;8.10;5.57;;;;;;;;;;5040186;28;20561;-75
2023/04/29 05:33:06;;;;;;;6.17;5.77;;;;;;;;;;5042023;28;20457;-75
2023/04/29 05:35:34;;;;;;;10.70;6.97;;;;;;;;;;5042454;28;20447;-74
2023/04/29 05:38:13;;;;;;;6.57;6.10;;;;;;;;;;5042357;28;20482;-76
2023/04/29 05:40:48;;;;;;;6.63;6.20;;;;;;;;;;5041953;28;20446;-75
2023/04/29 05:43:18;;;;;;;6.37;5.87;;;;;;;;;;5039246;28;20488;-76
2023/04/29 05:45:48;;;;;;;6.60;6.10;;;;;;;;;;5038418;28;20528;-75
2023/04/29 05:48:16;;;;;;;6.80;6.40;;;;;;;;;;5038005;28;20471;-75
2023/04/29 05:50:50;;;;;;;5.73;5.30;;;;;;;;;;5038037;28;20932;-73
2023/04/29 05:53:19;;;;;;;6.90;6.40;;;;;;;;;;5040448;28;20464;-76
2023/04/29 05:55:49;;;;;;;7.13;6.53;;;;;;;;;;5040472;28;20875;-75
2023/04/29 05:58:22;;;;;;;7.70;7.00;;;;;;;;;;5038551;28;20507;-75
2023/04/29 06:00:49;;;;;;;8.13;7.53;;;;;;;;;;5036787;28;20447;-77
2023/04/29 06:03:18;;;;;;;6.43;6.03;;;;;;;;;;5034312;28;21122;-77
2023/04/29 06:05:50;;;;;;;6.57;6.17;;;;;;;;;;5033394;28;20447;-75
2023/04/29 06:08:18;;;;;;;8.20;7.50;;;;;;;;;;5039543;28;20715;-75
2023/04/29 06:10:51;;;;;;;8.07;7.37;;;;;;;;;;5037572;28;21049;-76
2023/04/29 06:13:19;;;;;;;7.37;6.80;;;;;;;;;;5036910;28;20946;-75
2023/04/29 06:15:47;;;;;;;7.13;6.63;;;;;;;;;;5037279;28;20481;-76
2023/04/29 06:18:15;;;;;;;7.03;6.53;;;;;;;;;;5035808;28;20478;-76
2023/04/29 06:20:47;;;;;;;6.40;5.90;;;;;;;;;;5034718;28;20454;-76
2023/04/29 06:23:18;;;;;;;6.27;5.77;;;;;;;;;;5034637;28;20454;-76
2023/04/29 06:25:55;;;;;;;6.63;6.13;;;;;;;;;;5035127;28;20835;-75
2023/04/29 06:28:28;;;;;;;6.67;6.17;;;;;;;;;;5037307;28;20966;-76
2023/04/29 06:30:58;;;;;;;6.77;6.07;;;;;;;;;;5038152;28;20553;-75
2023/04/29 06:33:29;;;;;;;12.13;6.57;;;;;;;;;;5037402;28;20506;-76
2023/04/29 06:36:03;;;;;;;6.70;6.10;;;;;;;;;;5036955;28;20524;-75
2023/04/29 06:38:33;;;;;;;7.40;6.90;;;;;;;;;;5037930;28;21151;-76
2023/04/29 06:41:03;;;;;;;6.77;6.27;;;;;;;;;;5038171;28;20624;-75
2023/04/29 06:43:32;;;;;;;5.87;5.27;;;;;;;;;;5038334;28;20490;-75
2023/04/29 06:46:00;;;;;;;6.87;6.10;;;;;;;;;;5036717;28;20450;-75
2023/04/29 06:48:28;;;;;;;5.70;5.37;;;;;;;;;;5035566;28;20830;-76
2023/04/29 06:50:57;;;;;;;5.73;5.30;;;;;;;;;;5035902;28;20544;-75
2023/04/29 06:53:25;;;;;;;5.33;4.93;;;;;;;;;;5036421;28;20462;-75
2023/04/29 06:55:53;;;;;;;5.13;4.83;;;;;;;;;;5036492;28;21180;-75
2023/04/29 06:58:22;;;;;;;4.73;4.40;;;;;;;;;;5036168;28;20470;-76
2023/04/29 07:00:56;;;;;;;4.50;4.10;;;;;;;;;;5042191;28;20446;-75
2023/04/29 07:03:23;;;;;;;4.73;4.33;;;;;;;;;;5043175;28;20458;-75
2023/04/29 07:05:54;;;;;;;4.57;4.20;;;;;;;;;;5042732;28;20454;-75
2023/04/29 07:08:27;;;;;;;4.73;4.33;;;;;;;;;;5043411;28;20509;-75
2023/04/29 07:10:58;;;;;;;4.00;3.70;;;;;;;;;;5044689;28;20561;-75
2023/04/29 07:13:28;;;;;;;3.87;3.67;;;;;;;;;;5044175;28;20508;-75
2023/04/29 07:16:03;;;;;;;3.97;3.67;;;;;;;;;;5043855;28;20454;-76
2023/04/29 07:18:39;;;;;;;3.97;3.67;;;;;;;;;;5044063;28;20477;-75
2023/04/29 07:21:10;;;;;;;3.90;3.60;;;;;;;;;;5044133;28;20438;-75
2023/04/29 07:23:40;;;;;;;3.57;3.27;;;;;;;;;;5044954;28;20458;-76
2023/04/29 07:26:23;;;;;;;3.10;2.90;;;;;;;;;;5046679;28;20474;-75
2023/04/29 07:29:03;;;;;;;3.77;3.57;;;;;;;;;;5045481;28;20478;-76
2023/04/29 07:31:38;;;;;;;4.10;3.80;;;;;;;;;;5045898;28;20566;-75
2023/04/29 07:34:07;;;;;;;5.70;3.20;;;;;;;;;;5044558;28;20499;-75
2023/04/29 07:36:39;;;;;;;3.30;3.10;;;;;;;;;;5043934;28;20536;-75
2023/04/29 07:39:15;;;;;;;3.77;3.43;;;;;;;;;;5046478;28;20561;-76
2023/04/29 07:44:29;;;;;;;3.80;3.60;;;;;;;;;;5043941;28;20451;-75
2023/04/29 07:47:06;;;;;;;3.40;3.10;;;;;;;;;;5045119;28;20434;-76
2023/04/29 07:49:45;;;;;;;3.20;3.10;;;;;;;;;;5046559;28;20454;-75
2023/04/29 07:52:16;;;;;;;4.73;3.30;;;;;;;;;;5046288;28;20477;-75
2023/04/29 07:54:56;;;;;;;4.73;3.30;;;;;;;;;;5045407;28;20451;-77
2023/04/29 07:57:28;;;;;;;3.80;3.47;;;;;;;;;;5045147;28;20466;-76
2023/04/29 07:59:55;;;;;;;3.73;3.50;;;;;;;;;;5045366;28;20961;-75
2023/04/29 08:02:25;;;;;;;4.67;4.27;;;;;;;;;;5044840;28;20454;-76
2023/04/29 08:04:54;;;;;;;3.83;3.63;;;;;;;;;;5044264;28;20845;-76
2023/04/29 08:07:22;;;;;;;3.33;3.13;;;;;;;;;;5045247;28;20497;-76
2023/04/29 08:09:56;;;;;;;3.77;3.57;;;;;;;;;;5045471;28;20473;-76
2023/04/29 08:12:27;;;;;;;4.40;3.50;;;;;;;;;;5044760;28;20938;-76
2023/04/29 08:15:01;;;;;;;2.97;2.73;;;;;;;;;;5044524;28;20451;-76
2023/04/29 08:17:33;;;;;;;2.93;2.83;;;;;;;;;;5044883;28;20589;-75
2023/04/29 08:20:08;;;;;;;3.77;3.50;;;;;;;;;;5045112;28;20461;-76
2023/04/29 08:22:43;;;;;;;3.63;3.43;;;;;;;;;;5045006;28;20516;-76
2023/04/29 08:25:11;;;;;;;3.50;3.17;;;;;;;;;;5042622;28;20952;-76
2023/04/29 08:27:42;;;;;;;3.60;3.40;;;;;;;;;;5042705;28;20485;-77
2023/04/29 08:30:19;;;;;;;4.70;4.30;;;;;;;;;;5043694;28;20462;-76
2023/04/29 08:32:51;;;;;;;3.80;3.50;;;;;;;;;;5040074;28;20446;-76
2023/04/29 08:35:26;;;;;;;4.67;4.20;;;;;;;;;;5039889;28;20462;-76
2023/04/29 08:37:56;;;;;;;4.60;4.20;;;;;;;;;;5039920;28;20469;-76
2023/04/29 08:40:27;;;;;;;4.13;3.83;;;;;;;;;;5041520;28;20493;-77
2023/04/29 08:42:59;;;;;;;3.97;3.67;;;;;;;;;;5040716;28;20450;-78
2023/04/29 08:48:44;;;;;;;4.23;3.93;;;;;;;;;;4934283;28;20465;-76
2023/04/29 08:51:16;;;;;;;4.30;3.90;;;;;;;;;;5032983;28;20513;-77
2023/04/29 08:53:45;;;;;;;4.50;4.30;;;;;;;;;;5035584;28;20465;-76
2023/04/29 08:56:20;;;;;;;3.97;3.77;;;;;;;;;;5036530;28;20965;-77
2023/04/29 08:58:53;;;;;;;4.80;4.40;;;;;;;;;;5042125;28;20477;-77
2023/04/29 09:01:22;;;;;;;4.60;4.30;;;;;;;;;;5040025;28;20447;-76
2023/04/29 09:04:10;;;;;;;4.77;4.50;;;;;;;;;;5043262;28;20447;-77
2023/04/29 09:06:38;;;;;;;4.40;4.00;;;;;;;;;;5043039;28;20492;-76
2023/04/29 09:09:17;;;;;;;5.67;5.00;;;;;;;;;;5038174;28;20494;-76
2023/04/29 09:11:46;;;;;;;6.73;4.50;;;;;;;;;;5041020;28;20474;-76
2023/04/29 09:14:20;;;;;;;4.80;4.30;;;;;;;;;;5041961;28;20446;-78
2023/04/29 09:16:51;;;;;;;4.10;3.80;;;;;;;;;;5042277;28;20450;-77
2023/04/29 09:19:35;;;;;;;4.53;4.23;;;;;;;;;;5041606;28;20466;-76
2023/04/29 09:22:10;;;;;;;4.50;4.20;;;;;;;;;;5039092;28;20611;-77
2023/04/29 09:27:41;;;;;;;5.30;5.00;;;;;;;;;;5037329;28;20557;-77
2023/04/29 09:30:11;;;;;;;6.20;5.70;;;;;;;;;;5039169;28;20489;-78
2023/04/29 09:32:47;;;;;;;7.43;5.63;;;;;;;;;;5039182;28;21009;-76
2023/04/29 09:35:26;;;;;;;5.90;5.40;;;;;;;;;;5038923;28;20533;-76
2023/04/29 09:38:13;;;;;;;5.67;5.33;;;;;;;;;;5039913;28;20850;-75
2023/04/29 09:40:47;;;;;;;4.90;4.60;;;;;;;;;;5039360;28;20497;-76
2023/04/29 09:43:17;;;;;;;3.93;3.73;;;;;;;;;;5036886;28;20445;-77
2023/04/29 09:45:46;;;;;;;4.90;4.10;;;;;;;;;;5038057;28;20510;-76
2023/04/29 09:48:16;;;;;;;4.23;3.93;;;;;;;;;;5037487;28;20916;-76
2023/04/29 09:51:00;;;;;;;4.27;4.00;;;;;;;;;;5038110;28;20636;-76
2023/04/29 09:53:37;;;;;;;4.37;3.97;;;;;;;;;;5040452;28;20841;-76
2023/04/29 09:56:08;;;;;;;3.53;3.33;;;;;;;;;;5040978;28;20454;-77
2023/04/29 09:58:39;;;;;;;3.70;3.50;;;;;;;;;;5040558;28;20985;-78
2023/04/29 10:01:08;;;;;;;3.97;3.77;;;;;;;;;;5036963;28;20538;-76
2023/04/29 10:03:43;;;;;;;3.80;3.50;;;;;;;;;;5037453;28;20915;-77
2023/04/29 10:06:27;;;;;;;3.70;3.50;;;;;;;;;;5037593;28;20460;-76
2023/04/29 10:08:56;;;;;;;3.63;3.33;;;;;;;;;;5034162;28;20458;-76
2023/04/29 10:11:24;;;;;;;3.87;3.57;;;;;;;;;;5036269;28;21079;-77
2023/04/29 10:13:53;;;;;;;3.30;3.10;;;;;;;;;;5039493;28;20451;-77
2023/04/29 10:16:25;;;;;;;3.13;2.90;;;;;;;;;;5040790;28;20458;-77
2023/04/29 10:19:02;;;;;;;3.10;2.90;;;;;;;;;;5037724;28;20854;-77
2023/04/29 10:21:35;;;;;;;4.03;3.77;;;;;;;;;;5040662;28;20945;-77
2023/04/29 10:24:08;;;;;;;4.03;3.73;;;;;;;;;;5041993;28;20980;-78
2023/04/29 10:26:43;;;;;;;3.10;2.90;;;;;;;;;;5041357;28;20556;-79
2023/04/29 10:29:29;;;;;;;3.53;3.23;;;;;;;;;;5040206;28;20470;-78
2023/04/29 10:32:15;;;;;;;2.93;2.73;;;;;;;;;;5040000;28;20569;-78
2023/04/29 10:34:57;;;;;;;4.20;3.57;;;;;;;;;;5037958;28;20926;-78
2023/04/29 10:37:37;;;;;;;3.40;3.20;;;;;;;;;;5040626;28;20474;-77
2023/04/29 10:40:21;;;;;;;3.60;3.40;;;;;;;;;;5042054;28;20548;-78
2023/04/29 10:42:51;;;;;;;4.50;4.10;;;;;;;;;;5040567;28;20454;-78
2023/04/29 10:45:27;;;;;;;4.37;3.97;;;;;;;;;;5040966;28;20458;-77
2023/04/29 10:48:23;;;;;;;3.87;3.50;;;;;;;;;;5039042;28;20470;-78
2023/04/29 10:51:09;;;;;;;3.57;3.37;;;;;;;;;;5039144;28;20958;-78
2023/04/29 10:53:59;;;;;;;4.10;3.70;;;;;;;;;;5035617;28;20450;-77
2023/04/29 10:56:36;;;;;;;4.90;4.53;;;;;;;;;;5037845;28;20528;-77
2023/04/29 10:59:07;;;;;;;4.60;3.73;;;;;;;;;;5044186;28;20482;-77
2023/04/29 11:01:47;;;;;;;3.63;3.43;;;;;;;;;;5046350;28;20454;-76
2023/04/29 11:04:14;;;;;;;7.00;4.63;;;;;;;;;;5045529;28;20450;-76
2023/04/29 11:06:43;;;;;;;3.50;3.30;;;;;;;;;;5046358;28;20942;-77
2023/04/29 11:09:13;;;;;;;3.83;3.53;;;;;;;;;;5047954;28;20470;-77
2023/04/29 11:11:44;;;;;;;4.30;3.97;;;;;;;;;;5046414;28;20534;-75
2023/04/29 11:14:11;;;;;;;3.60;3.30;;;;;;;;;;5046624;28;20538;-78
2023/04/29 11:16:39;;;;;;;3.20;2.90;;;;;;;;;;5053222;28;20477;-78
2023/04/29 11:19:11;;;;;;;4.77;3.37;;;;;;;;;;5058678;28;20455;-79
2023/04/29 11:21:38;;;;;;;3.50;3.30;;;;;;;;;;5058875;28;20431;-77
2023/04/29 11:24:07;;;;;;;3.27;3.07;;;;;;;;;;5058496;28;20446;-75
2023/04/29 11:26:36;;;;;;;3.47;3.27;;;;;;;;;;5053754;28;20446;-77
2023/04/29 11:29:03;;;;;;;2.87;2.77;;;;;;;;;;5049344;28;20478;-76
2023/04/29 11:31:31;;;;;;;3.13;2.93;;;;;;;;;;5047778;28;20477;-77
2023/04/29 11:33:58;;;;;;;2.90;2.70;;;;;;;;;;5046307;28;20450;-77
2023/04/29 11:36:26;;;;;;;3.73;3.30;;;;;;;;;;5042122;28;20438;-77
2023/04/29 11:38:54;;;;;;;7.60;3.27;;;;;;;;;;5041855;28;20466;-77
2023/04/29 11:41:24;;;;;;;4.40;4.00;;;;;;;;;;5044914;28;20533;-75
2023/04/29 11:44:03;;;;;;;4.63;3.63;;;;;;;;;;5047001;28;20481;-76
2023/04/29 11:46:35;;;;;;;3.20;3.00;;;;;;;;;;5050271;28;20454;-76
2023/04/29 11:49:02;;;;;;;3.10;2.90;;;;;;;;;;5043968;28;20474;-75
2023/04/29 11:51:31;;;;;;;3.97;3.63;;;;;;;;;;5039799;28;20569;-78
2023/04/29 11:53:59;;;;;;;4.07;3.77;;;;;;;;;;5038933;28;20457;-77
2023/04/29 11:56:26;;;;;;;4.20;3.80;;;;;;;;;;5039726;28;20451;-78
2023/04/29 11:59:00;;;;;;;5.17;4.77;;;;;;;;;;5038664;28;20478;-78
2023/04/29 12:01:32;;;;;;;5.57;5.00;;;;;;;;;;5042437;28;20538;-76
2023/04/29 12:04:01;;;;;;;5.57;5.17;;;;;;;;;;5040618;28;20524;-76
2023/04/29 12:06:30;;;;;;;5.97;5.47;;;;;;;;;;5042389;28;20451;-78
2023/04/29 12:09:03;;;;;;;5.77;5.30;;;;;;;;;;5042586;28;20474;-77
2023/04/29 12:11:31;;;;;;;5.90;5.40;;;;;;;;;;5043386;28;20506;-76
2023/04/29 12:14:02;;;;;;;4.73;4.43;;;;;;;;;;5045320;28;20443;-75
2023/04/29 12:16:31;;;;;;;4.63;4.30;;;;;;;;;;5048742;28;20453;-77
2023/04/29 12:18:59;;;;;;;5.30;4.90;;;;;;;;;;5047194;28;20458;-76
2023/04/29 12:21:27;;;;;;;5.33;4.80;;;;;;;;;;5046738;28;20903;-75
2023/04/29 12:24:00;;;;;;;5.53;5.03;;;;;;;;;;5047753;28;20451;-78
2023/04/29 12:26:32;;;;;;;4.53;4.23;;;;;;;;;;5048558;28;20522;-75
2023/04/29 12:29:04;;;;;;;4.90;4.60;;;;;;;;;;5048552;28;20478;-78
2023/04/29 12:31:35;;;;;;;5.00;4.60;;;;;;;;;;5044580;28;20443;-76
2023/04/29 12:34:05;;;;;;;5.00;4.70;;;;;;;;;;5044316;28;20478;-75
2023/04/29 12:36:36;;;;;;;5.50;5.10;;;;;;;;;;5045296;28;20463;-75
2023/04/29 12:39:09;;;;;;;5.90;5.40;;;;;;;;;;5045668;28;20505;-77
2023/04/29 12:41:38;;;;;;;6.60;5.80;;;;;;;;;;5046060;28;20531;-78
2023/04/29 12:44:10;;;;;;;6.10;5.60;;;;;;;;;;5038310;28;20442;-77
2023/04/29 12:46:40;;;;;;;6.60;5.60;;;;;;;;;;5042178;28;20457;-76
2023/04/29 12:49:08;;;;;;;6.40;5.90;;;;;;;;;;5042552;28;20481;-77
2023/04/29 12:51:39;;;;;;;7.00;6.40;;;;;;;;;;5042645;28;20467;-78
2023/04/29 12:54:12;;;;;;;6.90;6.33;;;;;;;;;;5045629;28;20450;-75
2023/04/29 12:56:40;;;;;;;6.57;6.07;;;;;;;;;;5044913;28;20441;-75
2023/04/29 12:59:16;;;;;;;7.40;6.70;;;;;;;;;;5045835;28;20501;-74
2023/04/29 13:01:49;;;;;;;7.43;6.73;;;;;;;;;;5046851;28;20449;-76
2023/04/29 13:04:25;;;;;;;7.17;6.67;;;;;;;;;;5047593;28;20461;-76
2023/04/29 13:06:59;;;;;;;7.17;6.57;;;;;;;;;;5046200;28;20453;-78
2023/04/29 13:09:30;;;;;;;6.53;6.03;;;;;;;;;;5045689;28;20454;-78
2023/04/29 13:12:02;;;;;;;6.40;5.80;;;;;;;;;;5047717;28;20474;-76
2023/04/29 13:14:32;;;;;;;6.03;5.53;;;;;;;;;;5046654;28;20447;-76
2023/04/29 13:17:05;;;;;;;7.30;6.70;;;;;;;;;;5045998;28;20454;-76
2023/04/29 13:19:33;;;;;;;6.80;6.20;;;;;;;;;;5042897;28;20431;-75
2023/04/29 13:22:06;;;;;;;7.00;6.50;;;;;;;;;;5042946;28;20435;-75
2023/04/29 13:24:38;;;;;;;6.17;5.77;;;;;;;;;;5042638;28;20458;-75
2023/04/29 13:27:09;;;;;;;7.10;6.60;;;;;;;;;;5043952;28;20458;-76
2023/04/29 13:29:39;;;;;;;8.30;7.60;;;;;;;;;;5044600;28;20447;-76
2023/04/29 13:32:10;;;;;;;8.53;7.80;;;;;;;;;;5043098;28;20496;-76
2023/04/29 13:34:42;;;;;;;8.30;7.50;;;;;;;;;;5041613;28;20442;-76
2023/04/29 13:37:18;;;;;;;9.00;8.13;;;;;;;;;;5040047;28;20514;-76
2023/04/29 13:39:46;;;;;;;8.63;7.83;;;;;;;;;;5037481;28;20427;-76
2023/04/29 13:42:14;;;;;;;7.80;7.10;;;;;;;;;;5036093;28;20450;-77
2023/04/29 13:44:44;;;;;;;8.80;8.00;;;;;;;;;;5038843;28;20462;-76
2023/04/29 13:47:14;;;;;;;8.03;7.33;;;;;;;;;;5039115;28;21014;-76
2023/04/29 13:49:43;;;;;;;8.00;7.30;;;;;;;;;;5041011;28;20465;-77
2023/04/29 13:52:12;;;;;;;8.00;7.40;;;;;;;;;;5040175;28;20488;-75
2023/04/29 13:54:46;;;;;;;7.77;7.17;;;;;;;;;;5039100;28;20441;-75
2023/04/29 13:57:18;;;;;;;8.17;6.97;;;;;;;;;;5039249;28;20453;-76
2023/04/29 13:59:57;;;;;;;7.77;6.97;;;;;;;;;;5039655;28;20478;-78
2023/04/29 14:02:26;;;;;;;7.90;7.27;;;;;;;;;;5038277;28;20508;-76
2023/04/29 14:04:54;;;;;;;7.73;7.13;;;;;;;;;;5038818;28;20461;-76
2023/04/29 14:07:25;;;;;;;9.03;8.23;;;;;;;;;;5037957;28;20490;-77
2023/04/29 14:09:53;;;;;;;8.00;7.30;;;;;;;;;;5036517;28;20478;-76
2023/04/29 14:12:21;;;;;;;9.77;9.03;;;;;;;;;;5036307;28;20478;-76
2023/04/29 14:14:57;;;;;;;8.27;7.57;;;;;;;;;;5038440;28;20489;-76
2023/04/29 14:17:26;;;;;;;10.23;8.20;;;;;;;;;;5041973;28;20465;-75
2023/04/29 14:19:54;;;;;;;9.07;8.17;;;;;;;;;;5039378;28;20558;-80
2023/04/29 14:22:22;;;;;;;9.00;8.10;;;;;;;;;;5040221;28;20439;-76
2023/04/29 14:24:50;;;;;;;7.70;7.20;;;;;;;;;;5040295;28;20550;-75
2023/04/29 14:27:18;;;;;;;7.53;6.90;;;;;;;;;;5039360;28;20646;-76
2023/04/29 14:29:46;;;;;;;8.33;7.53;;;;;;;;;;5037763;28;20439;-77
2023/04/29 14:32:15;;;;;;;8.83;7.80;;;;;;;;;;5039490;28;20482;-76
2023/04/29 14:34:45;;;;;;;9.00;8.30;;;;;;;;;;5038130;28;20542;-77
2023/04/29 14:37:14;;;;;;;8.10;7.50;;;;;;;;;;5034756;28;20486;-78
2023/04/29 14:39:43;;;;;;;7.03;6.43;;;;;;;;;;5034839;28;20481;-76
2023/04/29 14:42:11;;;;;;;8.30;7.60;;;;;;;;;;5035166;28;20459;-76
2023/04/29 14:44:40;;;;;;;8.27;7.57;;;;;;;;;;5034857;28;20539;-77
2023/04/29 14:47:08;;;;;;;10.20;9.20;;;;;;;;;;5035079;28;21158;-75
2023/04/29 14:49:36;;;;;;;9.20;8.30;;;;;;;;;;5036468;28;20840;-75
2023/04/29 14:52:05;;;;;;;9.67;8.87;;;;;;;;;;5037219;28;20447;-76
2023/04/29 14:54:41;;;;;;;8.60;7.90;;;;;;;;;;5036504;28;20534;-77
2023/04/29 14:57:09;;;;;;;8.43;7.63;;;;;;;;;;5037093;28;21009;-77
2023/04/29 14:59:38;;;;;;;9.03;8.00;;;;;;;;;;5038047;28;20447;-77
2023/04/29 15:02:06;;;;;;;9.73;8.83;;;;;;;;;;5036785;28;20919;-77
2023/04/29 15:04:34;;;;;;;9.70;8.90;;;;;;;;;;5035845;28;20546;-78
2023/04/29 15:07:02;;;;;;;9.83;8.97;;;;;;;;;;5035498;28;20949;-77
2023/04/29 15:09:37;;;;;;;9.13;8.33;;;;;;;;;;5035056;28;20549;-76
2023/04/29 15:12:05;;;;;;;8.97;8.27;;;;;;;;;;5034937;28;20457;-77
2023/04/29 15:14:35;;;;;;;8.50;7.80;;;;;;;;;;5035387;28;20782;-76
2023/04/29 15:17:09;;;;;;;7.90;7.10;;;;;;;;;;5034937;28;20459;-77
2023/04/29 15:19:38;;;;;;;9.77;8.87;;;;;;;;;;5034797;28;20446;-76
2023/04/29 15:22:22;;;;;;;7.60;7.00;;;;;;;;;;5034991;28;20470;-76
2023/04/29 15:24:55;;;;;;;8.90;8.00;;;;;;;;;;5035217;28;20463;-78
2023/04/29 15:27:23;;;;;;;9.17;8.13;;;;;;;;;;5035003;28;20478;-76
2023/04/29 15:29:59;;;;;;;9.03;7.53;;;;;;;;;;5034702;28;20431;-77